createdAt,value
2022-08-29T00:00:35.560Z,64.4
2022-08-29T00:06:22.787Z,64.3
2022-08-29T00:12:03.126Z,64.3
2022-08-29T00:17:47.356Z,64.2
2022-08-29T00:23:14.969Z,64.1
2022-08-29T00:28:55.487Z,64.1
2022-08-29T00:34:17.160Z,64
2022-08-29T00:39:59.861Z,63.9
2022-08-29T00:45:24.317Z,63.9
2022-08-29T00:50:46.065Z,63.9
2022-08-29T00:55:51.404Z,63.8
2022-08-29T01:01:10.995Z,63.8
2022-08-29T01:06:58.536Z,63.7
2022-08-29T01:12:49.922Z,63.6
2022-08-29T01:18:26.592Z,63.6
2022-08-29T01:23:32.396Z,63.5
2022-08-29T01:29:09.987Z,63.5
2022-08-29T01:35:21.656Z,63.4
2022-08-29T01:40:59.088Z,63.4
2022-08-29T01:46:38.660Z,63.3
2022-08-29T01:52:19.065Z,63.3
2022-08-29T01:58:00.128Z,63.2
2022-08-29T02:03:39.861Z,63.1
2022-08-29T02:09:01.068Z,63.1
2022-08-29T02:14:38.060Z,63.1
2022-08-29T02:19:58.854Z,63
2022-08-29T02:26:04.148Z,62.9
2022-08-29T02:31:30.510Z,62.9
2022-08-29T02:37:00.847Z,62.8
2022-08-29T02:42:37.122Z,62.8
2022-08-29T02:47:58.893Z,62.8
2022-08-29T02:53:54.545Z,62.7
2022-08-29T02:59:03.632Z,62.6
2022-08-29T03:04:24.740Z,62.6
2022-08-29T03:10:08.161Z,62.6
2022-08-29T03:15:30.745Z,62.5
2022-08-29T03:21:08.681Z,62.4
2022-08-29T03:26:44.451Z,62.4
2022-08-29T03:32:31.280Z,62.3
2022-08-29T03:37:42.344Z,62.3
2022-08-29T03:43:04.353Z,62.2
2022-08-29T03:48:42.904Z,62.1
2022-08-29T03:54:21.957Z,62.1
2022-08-29T03:59:59.308Z,62.1
2022-08-29T04:05:40.467Z,62
2022-08-29T04:11:17.673Z,61.9
2022-08-29T04:16:55.521Z,61.9
2022-08-29T04:22:42.019Z,61.8
2022-08-29T04:28:48.904Z,61.8
2022-08-29T04:34:35.961Z,61.7
2022-08-29T04:40:13.265Z,61.7
2022-08-29T04:45:50.285Z,61.6
2022-08-29T04:51:35.612Z,61.6
2022-08-29T04:57:21.565Z,61.5
2022-08-29T05:02:48.215Z,61.4
2022-08-29T05:08:12.678Z,61.4
2022-08-29T05:13:59.185Z,61.3
2022-08-29T05:19:36.667Z,61.3
2022-08-29T05:25:23.821Z,61.2
2022-08-29T05:31:10.753Z,61.2
2022-08-29T05:36:53.850Z,61.1
2022-08-29T05:42:33.116Z,61.1
2022-08-29T05:48:21.651Z,61
2022-08-29T05:54:00.037Z,60.9
2022-08-29T05:59:38.070Z,60.9
2022-08-29T06:05:20.996Z,60.8
2022-08-29T06:10:58.394Z,60.8
2022-08-29T06:16:39.453Z,60.8
2022-08-29T06:22:26.591Z,60.7
2022-08-29T06:28:40.366Z,60.7
2022-08-29T06:34:18.581Z,60.6
2022-08-29T06:39:56.648Z,60.6
2022-08-29T06:45:36.772Z,60.4
2022-08-29T06:51:19.738Z,60.4
2022-08-29T06:57:35.450Z,60.4
2022-08-29T07:03:30.300Z,60.3
2022-08-29T07:09:28.444Z,60.3
2022-08-29T07:15:14.179Z,60.2
2022-08-29T07:21:07.651Z,60.2
2022-08-29T07:26:49.345Z,60.1
2022-08-29T07:32:41.778Z,60.1
2022-08-29T07:38:40.367Z,60
2022-08-29T07:44:25.783Z,59.9
2022-08-29T07:50:14.670Z,59.9
2022-08-29T07:55:59.099Z,59.9
2022-08-29T08:01:45.411Z,59.8
2022-08-29T08:07:16.775Z,59.8
2022-08-29T08:13:14.127Z,59.7
2022-08-29T08:18:52.010Z,59.7
2022-08-29T08:24:41.920Z,59.6
2022-08-29T08:30:20.670Z,59.6
2022-08-29T08:35:47.194Z,59.5
2022-08-29T08:41:43.500Z,59.5
2022-08-29T08:47:26.102Z,59.4
2022-08-29T08:52:52.243Z,59.4
2022-08-29T08:58:13.415Z,59.3
2022-08-29T09:03:51.766Z,59.3
2022-08-29T09:09:33.283Z,59.3
2022-08-29T09:14:57.377Z,59.2
2022-08-29T09:20:57.467Z,59.1
2022-08-29T09:27:09.726Z,59.1
2022-08-29T09:32:53.172Z,59
2022-08-29T09:38:55.214Z,59
2022-08-29T09:44:39.729Z,58.9
2022-08-29T09:50:17.969Z,58.9
2022-08-29T09:56:05.473Z,58.9
2022-08-29T10:01:53.808Z,58.8
2022-08-29T10:07:42.119Z,58.8
2022-08-29T10:13:06.859Z,58.7
2022-08-29T10:19:19.746Z,58.7
2022-08-29T10:25:00.067Z,58.6
2022-08-29T10:41:42.216Z,58.5
2022-08-29T10:47:24.783Z,58.4
2022-08-29T10:53:19.782Z,58.4
2022-08-29T10:59:02.784Z,58.3
2022-08-29T11:04:41.146Z,58.3
2022-08-29T11:10:20.871Z,58.3
2022-08-29T11:16:01.540Z,58.2
2022-08-29T11:21:43.971Z,58.2
2022-08-29T11:27:29.444Z,58.2
2022-08-29T11:33:09.758Z,58.2
2022-08-29T11:38:46.541Z,58.2
2022-08-29T11:45:53.985Z,58.1
2022-08-29T11:51:39.681Z,58.1
2022-08-29T11:57:17.990Z,58
2022-08-29T12:03:14.887Z,58.1
2022-08-29T12:09:29.781Z,57.9
2022-08-29T12:14:55.327Z,57.9
2022-08-29T12:20:58.707Z,57.9
2022-08-29T12:27:15.675Z,57.9
2022-08-29T12:33:39.893Z,57.9
2022-08-29T12:39:36.190Z,57.8
2022-08-29T13:01:30.912Z,57.7
2022-08-29T13:07:13.408Z,57.7
2022-08-29T13:12:58.280Z,57.6
2022-08-29T13:19:00.037Z,57.6
2022-08-29T13:24:49.992Z,57.6
2022-08-29T13:30:21.287Z,57.5
2022-08-29T13:36:10.752Z,57.5
2022-08-29T13:41:58.911Z,57.4
2022-08-29T13:47:38.568Z,57.4
2022-08-29T13:53:21.347Z,57.4
2022-08-29T13:58:58.041Z,57.4
2022-08-29T14:06:01.045Z,57.3
2022-08-29T14:11:44.319Z,57.3
2022-08-29T14:17:34.545Z,57.3
2022-08-29T14:22:56.820Z,57.2
2022-08-29T14:28:44.913Z,57.2
2022-08-29T14:34:51.080Z,57.1
2022-08-29T14:40:42.931Z,57.1
2022-08-29T14:46:22.471Z,57
2022-08-29T14:52:00.096Z,57
2022-08-29T14:58:24.001Z,57
2022-08-29T15:04:02.530Z,56.9
2022-08-29T15:09:38.223Z,56.9
2022-08-29T15:15:15.846Z,56.9
2022-08-29T15:22:28.726Z,56.8
2022-08-29T15:28:15.602Z,56.8
2022-08-29T15:33:55.300Z,56.8
2022-08-29T15:39:33.763Z,56.7
2022-08-29T15:45:26.755Z,56.6
2022-08-29T15:51:11.494Z,56.6
2022-08-29T15:56:49.784Z,56.6
2022-08-29T16:03:08.166Z,56.5
2022-08-29T16:08:50.148Z,56.6
